Time;durP1;ratioP1;P1;durP2;ratioP2;P2;SDS_P1;SDS_P2;PMS_P1;PMS_P2;Temp;Humidity;BMP_temperature;BMP_pressure;BME280_temperature;BME280_humidity;BME280_pressure;Samples;Min_cycle;Max_cycle;Signal;HPM_P1;HPM_P2
2022/05/03 00:02:06;;;;;;;8.45;4.62;;;;;;;13.68;48.65;99647.97;7680207;32;39907;-70
2022/05/03 00:06:40;;;;;;;7.60;4.30;;;;;;;13.65;49.13;99653.22;7685175;32;37728;-71
2022/05/03 00:11:26;;;;;;;6.43;4.10;;;;;;;13.70;49.58;99647.66;7684488;32;36949;-70
2022/05/03 00:15:43;;;;;;;5.62;4.05;;;;;;;13.84;50.02;99642.25;7683054;32;40107;-71
2022/05/03 00:20:00;;;;;;;6.40;4.12;;;;;;;13.49;52.30;99647.12;7657815;32;40043;-71
2022/05/03 00:24:17;;;;;;;5.90;4.22;;;;;;;14.11;49.55;99633.34;7657680;32;37977;-71
2022/05/03 00:28:34;;;;;;;5.07;3.72;;;;;;;13.59;50.08;99638.78;7658919;32;37142;-71
2022/05/03 00:32:51;;;;;;;8.15;3.90;;;;;;;13.44;51.06;99637.06;7685189;32;39361;-71
2022/05/03 00:37:08;;;;;;;6.97;3.95;;;;;;;13.50;51.00;99635.06;7683564;32;39971;-71
2022/05/03 00:41:35;;;;;;;6.03;3.67;;;;;;;13.28;51.88;99630.13;7685165;32;37838;-71
2022/05/03 00:46:05;;;;;;;5.78;4.03;;;;;;;13.55;51.34;99631.44;7685247;32;37704;-71
2022/05/03 00:50:42;;;;;;;5.35;3.62;;;;;;;13.68;50.99;99631.53;7685068;32;39424;-70
2022/05/03 00:55:16;;;;;;;6.62;3.80;;;;;;;13.74;50.36;99626.78;7685087;32;40675;-71
2022/05/03 00:59:38;;;;;;;8.30;3.78;;;;;;;14.18;48.88;99627.47;7682558;32;38636;-71
2022/05/03 01:04:09;;;;;;;8.40;4.07;;;;;;;13.97;49.96;99630.56;7685119;32;37881;-71
2022/05/03 01:08:44;;;;;;;4.72;3.67;;;;;;;14.01;49.29;99628.81;7674647;32;40235;-71
2022/05/03 01:13:25;;;;;;;7.70;4.15;;;;;;;13.73;49.94;99619.69;7657348;32;39939;-71
2022/05/03 01:17:52;;;;;;;8.82;3.75;;;;;;;13.43;50.79;99623.66;7658108;32;37493;-70
2022/05/03 01:22:14;;;;;;;5.12;3.90;;;;;;;13.56;49.55;99620.19;7657901;32;37037;-71
2022/05/03 01:26:49;;;;;;;7.45;3.70;;;;;;;13.75;48.44;99619.37;7658355;32;39854;-71
2022/05/03 01:31:09;;;;;;;6.55;4.05;;;;;;;13.69;48.08;99618.63;7674488;32;39732;-72
2022/05/03 01:35:26;;;;;;;6.07;3.87;;;;;;;13.90;47.69;99628.19;7684325;32;37819;-71
2022/05/03 01:40:05;;;;;;;6.68;4.22;;;;;;;13.56;48.40;99627.59;7683220;32;37220;-71
2022/05/03 01:44:49;;;;;;;5.32;3.70;;;;;;;13.51;48.40;99621.06;7684382;32;40134;-71
2022/05/03 01:54:29;;;;;;;10.27;4.28;;;;;;;13.24;50.24;99623.59;7684212;32;37832;-71
2022/05/03 01:59:04;;;;;;;6.22;3.83;;;;;;;13.41;49.60;99626.69;7682200;32;37757;-70
2022/05/03 02:03:40;;;;;;;6.20;4.35;;;;;;;13.45;49.55;99622.28;7683707;32;39442;-71
2022/05/03 02:07:57;;;;;;;5.85;4.07;;;;;;;13.24;50.09;99629.09;7682909;32;39913;-71
2022/05/03 02:12:19;;;;;;;6.72;3.72;;;;;;;13.34;49.83;99624.31;7683783;32;37786;-71
2022/05/03 02:17:25;;;;;;;6.97;4.10;;;;;;;13.05;50.69;99624.38;7683611;32;36017;-71
2022/05/03 02:21:52;;;;;;;7.32;4.10;;;;;;;13.17;50.61;99625.88;7655063;32;39325;-71
2022/05/03 02:26:43;;;;;;;7.68;4.18;;;;;;;12.75;52.29;99631.84;7682860;32;39638;-70
2022/05/03 02:31:03;;;;;;;6.10;4.28;;;;;;;12.98;51.88;99623.91;7675154;32;38707;-71
2022/05/03 02:35:24;;;;;;;6.55;4.00;;;;;;;12.75;52.70;99626.38;7686509;32;37067;-71
2022/05/03 02:40:02;;;;;;;6.32;4.30;;;;;;;12.83;53.08;99622.19;7686637;32;39334;-71
2022/05/03 02:44:19;;;;;;;7.65;4.30;;;;;;;12.90;52.73;99632.75;7685342;32;40713;-70
2022/05/03 02:48:47;;;;;;;6.65;4.47;;;;;;;12.94;52.79;99629.16;7685230;32;38032;-71
2022/05/03 02:53:17;;;;;;;7.10;4.43;;;;;;;12.98;53.10;99631.31;7664215;32;35901;-70
2022/05/03 02:57:56;;;;;;;7.70;4.15;;;;;;;12.80;53.98;99638.34;7660114;32;39450;-71
2022/05/03 03:02:28;;;;;;;7.78;4.57;;;;;;;12.75;54.59;99640.03;7660587;32;39988;-71
2022/05/03 03:06:44;;;;;;;7.43;4.30;;;;;;;12.66;54.94;99644.53;7647290;32;37974;-70
2022/05/03 03:11:07;;;;;;;7.07;4.22;;;;;;;12.82;54.59;99636.16;7660069;32;37250;-71
2022/05/03 03:15:35;;;;;;;6.90;4.30;;;;;;;12.73;54.77;99639.53;7660687;32;39502;-71
2022/05/03 03:20:10;;;;;;;8.43;4.00;;;;;;;12.55;54.96;99640.25;7659862;32;39911;-71
2022/05/03 03:24:27;;;;;;;7.22;4.32;;;;;;;12.91;53.44;99634.41;7659802;32;38013;-71
2022/05/03 03:28:44;;;;;;;6.68;4.15;;;;;;;12.99;53.40;99638.41;7646179;32;37844;-71
2022/05/03 03:33:01;;;;;;;8.00;5.12;;;;;;;12.63;55.11;99650.56;7658542;32;40133;-71
2022/05/03 03:37:18;;;;;;;7.97;5.18;;;;;;;12.43;56.44;99640.63;7658878;32;39955;-71
2022/05/03 03:41:34;;;;;;;5.12;4.00;;;;;;;12.47;56.82;99647.16;7658009;32;37898;-71
2022/05/03 03:45:51;;;;;;;7.50;4.60;;;;;;;12.52;56.74;99649.03;7658453;32;37570;-71
2022/05/03 03:50:08;;;;;;;7.62;4.43;;;;;;;12.43;57.21;99656.22;7658861;32;39224;-71
2022/05/03 03:54:25;;;;;;;8.35;4.85;;;;;;;12.66;55.73;99655.47;7658134;32;40103;-71
2022/05/03 03:58:41;;;;;;;8.55;4.72;;;;;;;12.56;55.91;99659.09;7662164;32;38641;-71
2022/05/03 04:02:58;;;;;;;8.20;5.20;;;;;;;12.80;55.55;99662.97;7685490;32;37045;-71
2022/05/03 04:07:14;;;;;;;8.05;4.75;;;;;;;12.88;55.29;99662.34;7684302;32;40104;-71
2022/05/03 04:11:44;;;;;;;14.93;5.12;;;;;;;12.58;56.53;99659.63;7685515;32;39846;-71
2022/05/03 04:16:02;;;;;;;7.55;4.22;;;;;;;12.87;55.63;99653.31;7685417;32;38654;-71
2022/05/03 04:20:19;;;;;;;8.30;4.03;;;;;;;13.13;54.91;99658.50;7684258;32;36890;-71
2022/05/03 04:24:35;;;;;;;7.32;4.25;;;;;;;13.18;54.42;99650.25;7685420;32;39423;-71
2022/05/03 04:28:58;;;;;;;6.97;4.40;;;;;;;13.26;54.91;99666.03;7672035;32;39963;-71
2022/05/03 04:33:14;;;;;;;9.10;4.87;;;;;;;13.21;55.62;99655.12;7657522;32;37969;-72
2022/05/03 04:37:36;;;;;;;8.00;4.87;;;;;;;13.31;55.59;99654.16;7658921;32;38131;-71
2022/05/03 04:41:52;;;;;;;7.40;4.30;;;;;;;13.59;54.11;99660.69;7658779;32;39420;-71
2022/05/03 04:46:08;;;;;;;9.48;4.07;;;;;;;13.79;53.43;99659.56;7658622;32;40006;-71
2022/05/03 04:50:24;;;;;;;10.77;4.62;;;;;;;13.83;52.02;99652.41;7657015;32;37880;-71
2022/05/03 04:54:40;;;;;;;5.75;4.25;;;;;;;13.40;52.40;99660.69;7658637;32;37880;-71
2022/05/03 04:58:56;;;;;;;6.55;4.60;;;;;;;13.71;52.10;99654.75;7659179;32;39377;-71
2022/05/03 05:03:13;;;;;;;6.85;4.25;;;;;;;13.59;52.73;99659.84;7658454;32;39863;-71
2022/05/03 05:07:29;;;;;;;8.10;4.30;;;;;;;13.83;52.74;99666.09;7658477;32;38013;-71
2022/05/03 05:11:46;;;;;;;6.93;4.50;;;;;;;13.94;50.58;99655.00;7658361;32;37083;-71
2022/05/03 05:16:03;;;;;;;6.10;3.90;;;;;;;14.01;50.16;99658.16;7658271;32;39443;-72
2022/05/03 05:20:20;;;;;;;7.20;3.90;;;;;;;14.34;49.32;99655.44;7658411;32;39986;-71
2022/05/03 05:24:36;;;;;;;7.70;4.18;;;;;;;14.17;49.79;99665.03;7656982;32;37982;-72
2022/05/03 05:28:53;;;;;;;7.15;4.57;;;;;;;13.99;51.85;99663.16;7671653;32;37256;-71
2022/05/03 05:33:10;;;;;;;6.65;4.00;;;;;;;13.70;54.67;99662.16;7684451;32;39377;-71
2022/05/03 05:37:26;;;;;;;8.95;4.50;;;;;;;14.20;53.44;99663.63;7684486;32;40809;-71
2022/05/03 05:41:42;;;;;;;7.22;4.50;;;;;;;14.63;52.20;99661.53;7684220;32;38800;-71
2022/05/03 05:45:58;;;;;;;8.13;4.70;;;;;;;14.57;51.96;99662.72;7684344;32;37217;-71
2022/05/03 05:50:14;;;;;;;7.18;4.45;;;;;;;15.01;51.03;99655.88;7684274;32;39296;-71
2022/05/03 05:54:30;;;;;;;6.50;3.83;;;;;;;15.10;49.41;99647.75;7684198;32;41382;-72
2022/05/03 05:58:46;;;;;;;7.05;4.20;;;;;;;14.96;50.19;99657.94;7670396;32;37879;-72
2022/05/03 06:03:03;;;;;;;8.77;4.35;;;;;;;15.28;50.61;99654.28;7656659;32;37827;-72
2022/05/03 06:07:19;;;;;;;9.13;4.20;;;;;;;15.48;51.09;99643.97;7657561;32;40121;-72
2022/05/03 06:11:35;;;;;;;6.85;4.32;;;;;;;15.37;50.53;99652.41;7657783;32;39847;-72
2022/05/03 06:15:51;;;;;;;6.15;3.80;;;;;;;15.52;49.52;99647.72;7679604;32;37945;-72
2022/05/03 06:20:09;;;;;;;7.57;3.62;;;;;;;15.72;47.62;99651.94;7683650;32;37126;-72
2022/05/03 06:24:25;;;;;;;6.30;4.03;;;;;;;16.11;48.46;99642.28;7681907;32;40071;-75
2022/05/03 06:28:42;;;;;;;8.80;3.78;;;;;;;16.53;48.44;99638.16;7682040;32;39869;-75
2022/05/03 06:32:59;;;;;;;10.02;3.92;;;;;;;16.78;47.42;99646.88;7683299;32;38124;-75
2022/05/03 06:37:18;;;;;;;7.30;4.00;;;;;;;16.84;45.42;99648.38;7683140;32;37041;-71
2022/05/03 06:41:34;;;;;;;5.78;3.70;;;;;;;16.53;45.39;99646.41;7674866;32;40249;-71
2022/05/03 06:45:52;;;;;;;8.50;3.92;;;;;;;17.36;43.41;99646.94;7656590;32;39986;-72
2022/05/03 06:50:09;;;;;;;7.28;4.07;;;;;;;17.58;43.42;99648.78;7656584;32;37033;-72
2022/05/03 06:54:25;;;;;;;5.97;3.87;;;;;;;17.83;43.04;99644.41;7656542;32;37738;-72
2022/05/03 06:58:42;;;;;;;8.82;4.28;;;;;;;18.19;42.19;99640.53;7659783;32;39303;-71
2022/05/03 07:02:58;;;;;;;5.87;3.87;;;;;;;18.60;41.52;99646.62;7655975;32;40840;-70
2022/05/03 07:07:14;;;;;;;6.90;3.87;;;;;;;18.36;41.43;99640.50;7681476;32;38732;-71
2022/05/03 07:11:30;;;;;;;7.62;3.97;;;;;;;18.84;40.59;99643.34;7682407;32;37883;-71
2022/05/03 07:15:46;;;;;;;5.72;3.80;;;;;;;18.82;41.07;99640.91;7683015;32;40085;-71
2022/05/03 07:24:39;;;;;;;5.87;3.40;;;;;;;19.46;39.36;99634.41;7679065;32;37920;-71
2022/05/03 07:28:55;;;;;;;7.00;3.50;;;;;;;19.64;36.75;99640.59;7659168;32;37407;-72
2022/05/03 07:33:11;;;;;;;7.90;3.70;;;;;;;19.42;35.52;99641.75;7659157;32;39772;-71
2022/05/03 07:37:27;;;;;;;6.95;3.47;;;;;;;19.67;34.17;99636.38;7675199;32;39819;-71
2022/05/03 07:41:43;;;;;;;4.90;3.05;;;;;;;20.25;34.21;99631.03;7667821;32;37924;-71
2022/05/03 07:46:00;;;;;;;5.37;3.05;;;;;;;20.03;34.96;99633.00;7674874;32;37030;-79
2022/05/03 07:50:16;;;;;;;6.50;3.67;;;;;;;20.21;36.59;99632.84;7676758;32;39416;-72
2022/05/03 07:54:33;;;;;;;7.15;3.10;;;;;;;20.18;33.61;99634.34;7658143;32;40972;-71
2022/05/03 07:58:49;;;;;;;5.97;3.05;;;;;;;20.89;32.09;99637.22;7659089;32;37666;-71
2022/05/03 08:03:05;;;;;;;6.65;3.20;;;;;;;20.50;31.73;99645.75;7682707;32;37071;-71
2022/05/03 08:07:22;;;;;;;4.80;3.08;;;;;;;20.97;30.88;99628.78;7685250;32;37824;-71
2022/05/03 08:11:38;;;;;;;4.55;3.00;;;;;;;21.10;28.96;99635.13;7685127;32;39808;-71
2022/05/03 08:15:54;;;;;;;5.70;2.97;;;;;;;21.52;29.52;99645.16;7685371;32;38690;-71
2022/05/03 08:20:11;;;;;;;4.30;2.53;;;;;;;21.96;28.86;99630.63;7669494;32;37790;-71
2022/05/03 08:24:27;;;;;;;9.38;2.67;;;;;;;22.05;26.81;99634.84;7684605;32;39124;-72
2022/05/03 08:28:43;;;;;;;5.97;2.65;;;;;;;22.49;28.03;99629.38;7669570;32;40868;-71
2022/05/03 08:32:59;;;;;;;6.43;2.75;;;;;;;22.79;26.94;99630.91;7658673;32;38710;-73
2022/05/03 08:42:06;;;;;;;4.10;2.37;;;;;;;22.09;28.68;99635.78;7658856;32;40014;-71
2022/05/03 08:46:23;;;;;;;5.00;2.50;;;;;;;22.57;28.16;99632.31;7658752;32;40185;-75
2022/05/03 08:50:39;;;;;;;4.65;2.20;;;;;;;23.02;27.44;99631.88;7658624;32;38865;-81
2022/05/03 08:54:57;;;;;;;3.40;2.00;;;;;;;23.00;27.34;99631.44;7657470;32;37225;-74
2022/05/03 08:59:15;;;;;;;6.40;2.55;;;;;;;23.44;27.20;99624.97;7680191;32;39354;-77
2022/05/03 09:03:32;;;;;;;6.32;2.20;;;;;;;23.71;25.42;99627.91;7659073;32;39935;-74
2022/05/03 09:07:52;;;;;;;4.75;2.20;;;;;;;23.36;22.85;99623.19;7658395;32;37916;-73
2022/05/03 09:12:20;;;;;;;3.80;2.03;;;;;;;23.46;23.95;99633.75;7658288;32;35776;-73
2022/05/03 09:16:48;;;;;;;3.70;2.00;;;;;;;23.98;24.59;99623.34;7657321;32;39324;-74
2022/05/03 09:25:53;;;;;;;3.28;1.90;;;;;;;24.09;23.25;99615.22;7654979;32;38396;-75
2022/05/03 09:30:10;;;;;;;13.32;2.20;;;;;;;24.23;24.05;99606.34;7657191;32;37009;-75
2022/05/03 09:34:27;;;;;;;3.10;1.92;;;;;;;24.81;23.05;99611.00;7657114;32;40554;-74
2022/05/03 09:38:55;;;;;;;3.50;2.05;;;;;;;24.93;22.11;99608.00;7668094;32;39916;-79
2022/05/03 09:43:13;;;;;;;6.47;2.10;;;;;;;24.67;23.69;99611.56;7661928;32;38645;-80
2022/05/03 09:47:32;;;;;;;3.67;1.70;;;;;;;24.67;22.23;99612.34;7684345;32;37632;-80
2022/05/03 09:51:49;;;;;;;2.90;1.90;;;;;;;24.87;22.56;99596.37;7684459;32;39009;-79
2022/05/03 09:56:11;;;;;;;3.45;2.17;;;;;;;24.53;20.96;99606.50;7674316;32;40014;-80
2022/05/03 10:00:27;;;;;;;2.97;2.05;;;;;;;25.43;22.74;99597.63;7656787;32;37597;-81
2022/05/03 10:04:48;;;;;;;5.07;2.35;;;;;;;25.72;19.94;99592.44;7660450;32;38141;-76
2022/05/03 10:09:04;;;;;;;4.15;1.80;;;;;;;24.87;20.83;99590.81;7684092;32;40581;-76
2022/05/03 10:13:20;;;;;;;2.95;2.15;;;;;;;25.14;21.94;99595.59;7665059;32;40636;-74
2022/05/03 10:22:26;;;;;;;3.05;2.10;;;;;;;24.86;24.83;99591.16;7657384;32;37369;-74
2022/05/03 10:27:02;;;;;;;11.82;2.45;;;;;;;24.32;26.36;99593.00;7657893;32;40163;-74
2022/05/03 10:31:21;;;;;;;2.35;1.55;;;;;;;24.90;24.77;99581.66;7657041;32;40865;-74
2022/05/03 10:35:37;;;;;;;6.20;1.50;;;;;;;24.77;21.68;99585.03;7657096;32;35785;-74
2022/05/03 10:40:06;;;;;;;5.07;1.65;;;;;;;24.58;20.57;99580.31;7657055;32;37817;-74
2022/05/03 10:45:10;;;;;;;2.60;1.77;;;;;;;24.71;20.10;99585.34;7656602;32;40091;-75
2022/05/03 10:49:27;;;;;;;2.72;1.85;;;;;;;25.08;20.94;99568.00;7602683;32;41098;-75
2022/05/03 10:53:43;;;;;;;3.42;2.10;;;;;;;25.48;20.07;99569.41;7637076;32;37580;-78
2022/05/03 10:58:25;;;;;;;3.47;2.10;;;;;;;25.82;21.09;99560.28;7658915;32;38660;-81
2022/05/03 11:03:21;;;;;;;4.13;2.20;;;;;;;25.65;21.70;99558.87;7659958;32;39456;-85
2022/05/03 11:07:37;;;;;;;3.92;2.25;;;;;;;25.46;22.45;99568.97;7660087;32;40089;-86
2022/05/03 11:12:02;;;;;;;7.35;2.55;;;;;;;26.11;22.69;99569.78;7659956;32;38860;-87
2022/05/03 11:16:21;;;;;;;3.95;2.10;;;;;;;26.94;21.43;99560.19;7660033;32;36029;-80
2022/05/03 11:20:38;;;;;;;2.65;1.87;;;;;;;27.47;21.30;99555.34;7658653;32;40182;-76
2022/05/03 11:24:57;;;;;;;10.63;2.17;;;;;;;27.96;20.48;99559.56;7659491;32;39889;-77
2022/05/03 11:29:14;;;;;;;3.35;2.00;;;;;;;28.33;20.92;99552.03;7659553;32;36921;-77
2022/05/03 11:33:30;;;;;;;10.13;2.90;;;;;;;27.51;22.21;99551.37;7659375;32;37163;-76
2022/05/03 11:37:55;;;;;;;3.72;1.40;;;;;;;27.27;23.19;99544.41;7659535;32;39452;-77
2022/05/03 11:42:11;;;;;;;3.70;1.50;;;;;;;26.79;18.66;99558.47;7659233;32;40863;-77
2022/05/03 11:46:28;;;;;;;5.12;1.77;;;;;;;25.68;20.21;99586.00;7659038;32;37916;-77
2022/05/03 11:59:56;;;;;;;1.95;1.73;;;;;;;23.40;24.96;99540.62;7658158;32;41126;-76
2022/05/03 12:04:12;;;;;;;1.90;1.40;;;;;;;23.75;26.71;99534.16;7658859;32;37990;-76
2022/05/03 12:08:30;;;;;;;2.12;1.40;;;;;;;24.76;25.58;99522.09;7658964;32;37747;-77
2022/05/03 12:13:08;;;;;;;1.92;1.60;;;;;;;26.40;23.69;99520.56;7657744;32;41498;-76
2022/05/03 12:17:24;;;;;;;3.50;1.95;;;;;;;27.31;22.69;99506.09;7658856;32;40980;-76
2022/05/03 12:21:43;;;;;;;3.15;2.05;;;;;;;26.50;18.32;99509.88;7657266;32;38612;-76
2022/05/03 12:26:00;;;;;;;5.47;1.98;;;;;;;26.04;19.41;99502.69;7683660;32;36707;-75
2022/05/03 12:30:18;;;;;;;4.43;2.00;;;;;;;25.57;20.55;99509.72;7684848;32;39249;-76
2022/05/03 12:34:34;;;;;;;2.87;1.90;;;;;;;25.78;21.22;99507.16;7684561;32;39862;-76
2022/05/03 12:38:50;;;;;;;3.62;2.17;;;;;;;25.99;22.21;99511.41;7684567;32;38749;-75
2022/05/03 12:43:21;;;;;;;3.58;1.77;;;;;;;26.84;23.62;99505.00;7684319;32;37662;-76
2022/05/03 12:47:37;;;;;;;6.72;1.95;;;;;;;27.49;19.07;99499.75;7685184;32;39991;-76
2022/05/03 12:51:54;;;;;;;2.83;1.80;;;;;;;27.31;20.03;99503.28;7684616;32;40049;-76
2022/05/03 13:00:59;;;;;;;3.70;1.80;;;;;;;26.50;19.83;99495.91;7684863;32;36740;-76
2022/05/03 13:05:15;;;;;;;4.43;1.92;;;;;;;26.36;19.85;99485.44;7684030;32;39790;-77
2022/05/03 13:09:31;;;;;;;3.35;2.08;;;;;;;26.34;19.15;99485.00;7684741;32;39753;-76
2022/05/03 13:13:48;;;;;;;3.17;2.00;;;;;;;27.28;20.57;99472.47;7683794;32;39526;-76
2022/05/03 13:18:05;;;;;;;3.95;1.90;;;;;;;27.55;18.00;99470.19;7684773;32;37459;-77
2022/05/03 13:22:21;;;;;;;2.10;1.80;;;;;;;26.38;19.12;99471.88;7684311;32;39110;-76
2022/05/03 13:26:39;;;;;;;4.37;1.92;;;;;;;26.91;19.67;99474.28;7684265;32;39881;-77
2022/05/03 13:30:56;;;;;;;6.55;1.83;;;;;;;26.34;21.34;99473.84;7684236;32;37561;-76
2022/05/03 13:35:12;;;;;;;5.07;2.20;;;;;;;26.15;22.02;99466.50;7683409;32;37177;-78
2022/05/03 13:44:05;;;;;;;3.22;2.10;;;;;;;24.79;23.12;99485.13;7683625;32;39938;-75
2022/05/03 13:48:21;;;;;;;4.10;2.10;;;;;;;25.14;23.30;99473.66;7684202;32;38467;-77
2022/05/03 13:52:38;;;;;;;5.85;1.90;;;;;;;24.99;23.49;99474.66;7682466;32;37810;-77
2022/05/03 13:56:54;;;;;;;4.05;2.10;;;;;;;25.26;21.57;99481.03;7683395;32;39473;-78
2022/05/03 14:01:10;;;;;;;4.55;1.92;;;;;;;25.28;24.46;99489.81;7684028;32;39979;-77
2022/05/03 14:05:27;;;;;;;3.55;1.95;;;;;;;25.50;24.72;99490.87;7675701;32;38040;-76
2022/05/03 14:09:44;;;;;;;7.30;2.30;;;;;;;25.34;23.94;99499.47;7667876;32;36993;-76
2022/05/03 14:14:01;;;;;;;6.57;2.00;;;;;;;25.45;24.71;99505.19;7668840;32;39575;-76
2022/05/03 14:18:17;;;;;;;2.47;1.77;;;;;;;24.71;26.66;99495.34;7657526;32;39705;-74
2022/05/03 14:22:33;;;;;;;4.32;1.92;;;;;;;24.37;29.10;99509.12;7656351;32;37956;-74
2022/05/03 14:26:50;;;;;;;3.10;2.00;;;;;;;23.12;33.22;99518.56;7657191;32;37027;-74
2022/05/03 14:31:06;;;;;;;2.85;2.00;;;;;;;22.78;33.27;99512.59;7657147;32;39497;-73
2022/05/03 14:35:22;;;;;;;2.70;1.67;;;;;;;22.59;32.76;99519.66;7655539;32;40060;-74
2022/05/03 14:39:38;;;;;;;5.12;1.77;;;;;;;22.04;33.42;99538.88;7656722;32;37978;-73
2022/05/03 14:43:55;;;;;;;3.83;2.67;;;;;;;21.81;32.60;99546.97;7656737;32;37240;-74
2022/05/03 14:48:11;;;;;;;4.62;2.67;;;;;;;21.53;37.54;99547.75;7656736;32;39040;-74
2022/05/03 14:52:27;;;;;;;4.68;2.33;;;;;;;20.79;39.83;99558.13;7666303;32;40557;-74
2022/05/03 15:05:54;;;;;;;5.10;2.20;;;;;;;19.78;48.54;99592.53;7668783;32;40684;-73
2022/05/03 15:10:11;;;;;;;3.75;2.35;;;;;;;19.35;52.00;99608.31;7666260;32;39855;-74
2022/05/03 15:14:27;;;;;;;3.35;2.50;;;;;;;19.50;48.93;99612.41;7664342;32;37690;-74
2022/05/03 15:18:45;;;;;;;7.10;4.45;;;;;;;19.27;51.06;99626.53;7668593;32;37660;-74
2022/05/03 15:27:37;;;;;;;8.13;5.22;;;;;;;18.91;52.59;99632.59;7667390;32;40732;-74
2022/05/03 15:31:54;;;;;;;5.90;3.45;;;;;;;18.49;54.22;99632.34;7667264;32;38647;-73
2022/05/03 15:36:15;;;;;;;6.37;3.28;;;;;;;17.57;55.11;99634.16;7671506;32;36817;-74
2022/05/03 15:40:31;;;;;;;7.25;3.42;;;;;;;18.23;53.02;99619.44;7671798;32;40242;-73
2022/05/03 15:44:51;;;;;;;5.87;3.40;;;;;;;17.63;51.39;99605.31;7671088;32;39948;-73
2022/05/03 15:49:13;;;;;;;8.23;3.87;;;;;;;18.04;51.74;99606.00;7671978;32;38676;-74
2022/05/03 15:53:29;;;;;;;4.30;2.85;;;;;;;17.93;51.75;99591.72;7671517;32;37117;-74
2022/05/03 15:57:47;;;;;;;5.75;2.90;;;;;;;17.70;50.73;99573.72;7672194;32;39316;-72
2022/05/03 16:02:04;;;;;;;4.15;2.37;;;;;;;17.43;50.54;99576.44;7671984;32;40705;-73
2022/05/03 16:06:26;;;;;;;4.78;2.87;;;;;;;17.33;49.94;99565.72;7671347;32;36562;-73
2022/05/03 16:10:42;;;;;;;8.43;2.72;;;;;;;17.69;52.21;99561.84;7678902;32;38249;-74
2022/05/03 16:14:59;;;;;;;3.67;2.60;;;;;;;17.96;51.77;99563.50;7685562;32;39330;-73
2022/05/03 16:19:17;;;;;;;3.72;2.25;;;;;;;18.43;47.72;99551.69;7685401;32;40765;-74
2022/05/03 16:23:34;;;;;;;5.90;2.60;;;;;;;18.54;47.04;99552.97;7685318;32;37830;-73
2022/05/03 16:27:50;;;;;;;6.68;2.58;;;;;;;19.11;46.22;99568.28;7685492;32;37077;-74
2022/05/03 16:32:07;;;;;;;3.65;2.53;;;;;;;19.82;47.24;99588.78;7685501;32;39246;-76
2022/05/03 16:45:33;;;;;;;2.25;2.03;;;;;;;20.62;46.47;99570.22;7684737;32;37965;-69
2022/05/03 16:49:51;;;;;;;3.12;2.10;;;;;;;20.80;45.42;99571.63;7677210;32;254121;-69
2022/05/03 16:54:08;;;;;;;3.17;2.35;;;;;;;20.67;44.36;99580.28;7685249;32;41658;-69
2022/05/03 16:58:24;;;;;;;4.10;2.42;;;;;;;20.33;44.88;99593.31;7685001;32;37864;-70
2022/05/03 17:02:40;;;;;;;4.22;2.62;;;;;;;20.27;44.71;99604.63;7685058;32;37199;-70
2022/05/03 17:06:57;;;;;;;3.53;2.10;;;;;;;20.07;45.80;99605.47;7683778;32;39272;-78
2022/05/03 17:11:14;;;;;;;5.12;2.40;;;;;;;19.98;46.12;99601.97;7684940;32;40853;-72
2022/05/03 17:15:30;;;;;;;3.03;2.10;;;;;;;19.81;45.67;99609.28;7673246;32;38627;-73
2022/05/03 17:19:46;;;;;;;4.37;2.90;;;;;;;19.50;46.04;99632.56;7671279;32;37166;-73
2022/05/03 17:24:05;;;;;;;6.85;3.05;;;;;;;18.67;48.90;99657.97;7669858;32;39342;-73
2022/05/03 17:28:21;;;;;;;8.32;3.60;;;;;;;18.73;48.73;99665.75;7671038;32;39498;-73
2022/05/03 17:32:37;;;;;;;5.72;2.75;;;;;;;18.74;48.48;99655.50;7670139;32;37961;-73
2022/05/03 17:36:53;;;;;;;6.45;3.67;;;;;;;18.09;50.26;99662.94;7669842;32;38026;-73
2022/05/03 17:41:13;;;;;;;8.80;3.72;;;;;;;17.97;50.46;99667.16;7670923;32;39483;-73
2022/05/03 17:45:30;;;;;;;5.65;3.20;;;;;;;18.00;51.65;99666.50;7669580;32;39813;-73
2022/05/03 17:49:49;;;;;;;5.03;3.12;;;;;;;17.87;53.51;99661.97;7678222;32;37885;-74
2022/05/03 17:54:06;;;;;;;6.18;3.50;;;;;;;17.91;53.07;99662.12;7684392;32;36905;-74
2022/05/03 17:58:23;;;;;;;4.95;3.20;;;;;;;18.07;52.17;99667.97;7683047;32;39301;-73
2022/05/03 18:02:42;;;;;;;9.13;4.25;;;;;;;17.85;52.91;99675.25;7684173;32;39722;-73
2022/05/03 18:07:04;;;;;;;5.75;3.72;;;;;;;17.71;53.22;99669.84;7683931;32;36600;-74
2022/05/03 18:11:20;;;;;;;7.53;4.53;;;;;;;17.56;53.49;99668.38;7684097;32;37877;-74
2022/05/03 18:15:38;;;;;;;6.72;4.03;;;;;;;17.50;53.91;99677.94;7674713;32;39458;-74
2022/05/03 18:19:55;;;;;;;6.78;4.00;;;;;;;17.55;53.77;99676.97;7677011;32;39830;-73
2022/05/03 18:24:17;;;;;;;8.50;4.30;;;;;;;17.50;54.31;99680.69;7675085;32;37852;-73
2022/05/03 18:28:35;;;;;;;17.55;7.85;;;;;;;17.45;54.42;99686.34;7669686;32;37024;-74
2022/05/03 18:32:52;;;;;;;13.38;6.97;;;;;;;17.39;54.70;99685.69;7669272;32;39361;-74
2022/05/03 18:37:08;;;;;;;4.95;3.22;;;;;;;17.30;55.09;99676.59;7670733;32;40018;-73
2022/05/03 18:41:24;;;;;;;5.22;3.17;;;;;;;17.16;53.66;99665.69;7667997;32;38312;-73
2022/05/03 18:45:44;;;;;;;6.20;3.60;;;;;;;16.97;54.83;99656.84;7667218;32;37011;-73
2022/05/03 18:50:01;;;;;;;6.85;3.22;;;;;;;16.99;54.80;99666.44;7668012;32;39400;-73
2022/05/03 18:58:53;;;;;;;8.68;3.53;;;;;;;16.53;57.23;99693.19;7665401;32;37885;-73
2022/05/03 19:03:11;;;;;;;6.20;3.47;;;;;;;16.33;57.34;99697.28;7670801;32;37235;-73
2022/05/03 19:07:28;;;;;;;5.43;3.40;;;;;;;16.57;56.31;99690.63;7665959;32;39116;-73
2022/05/03 19:11:44;;;;;;;5.43;3.28;;;;;;;16.72;55.54;99694.94;7658426;32;40520;-73
2022/05/03 19:16:00;;;;;;;4.53;3.28;;;;;;;16.66;55.20;99690.69;7659288;32;37851;-72
2022/05/03 19:20:19;;;;;;;5.05;3.40;;;;;;;16.74;54.48;99695.44;7658674;32;36830;-73
2022/05/03 19:33:44;;;;;;;6.25;4.15;;;;;;;16.67;54.71;99706.06;7660803;32;38267;-73
2022/05/03 19:38:03;;;;;;;10.50;4.00;;;;;;;16.64;54.81;99721.28;7659675;32;37711;-74
2022/05/03 19:42:26;;;;;;;5.23;3.50;;;;;;;16.51;55.73;99722.97;7665639;32;40111;-73
2022/05/03 19:46:45;;;;;;;6.25;3.87;;;;;;;16.33;56.60;99721.22;7673124;32;39913;-74
2022/05/03 19:51:01;;;;;;;6.65;3.87;;;;;;;16.12;57.44;99727.19;7672284;32;38731;-73
2022/05/03 19:55:18;;;;;;;6.75;3.22;;;;;;;16.28;56.28;99730.41;7671514;32;37798;-72
2022/05/03 19:59:34;;;;;;;5.18;3.42;;;;;;;16.29;55.15;99736.72;7674617;32;39390;-74
2022/05/03 20:03:50;;;;;;;5.30;3.40;;;;;;;16.43;54.85;99733.91;7671465;32;39590;-73
2022/05/03 20:08:10;;;;;;;6.20;4.03;;;;;;;16.21;55.50;99734.72;7672139;32;36220;-72
2022/05/03 20:12:26;;;;;;;7.40;3.90;;;;;;;15.96;56.07;99737.72;7670397;32;37066;-73
2022/05/03 20:16:48;;;;;;;6.82;4.32;;;;;;;15.85;56.50;99743.75;7671218;32;39036;-73
2022/05/03 20:21:05;;;;;;;7.22;4.30;;;;;;;15.85;56.47;99758.34;7670678;32;40557;-72
2022/05/03 20:25:21;;;;;;;8.13;4.55;;;;;;;15.77;56.96;99756.31;7670600;32;38071;-73
2022/05/03 20:29:37;;;;;;;5.50;3.50;;;;;;;15.82;56.47;99755.38;7679903;32;38157;-72
2022/05/03 20:33:53;;;;;;;7.80;3.85;;;;;;;15.82;56.22;99755.38;7668681;32;39413;-72
2022/05/03 20:38:10;;;;;;;6.75;3.75;;;;;;;15.96;55.33;99767.97;7671225;32;39928;-73
2022/05/03 20:42:26;;;;;;;6.25;3.90;;;;;;;16.11;54.54;99763.28;7670557;32;37880;-73
2022/05/03 20:51:17;;;;;;;5.85;3.60;;;;;;;15.52;56.40;99771.34;7670334;32;39930;-73
2022/05/03 20:55:33;;;;;;;4.62;3.25;;;;;;;15.20;57.45;99767.56;7670922;32;39753;-72
2022/05/03 20:59:49;;;;;;;5.55;3.60;;;;;;;15.45;56.87;99768.19;7657320;32;37696;-73
2022/05/03 21:04:08;;;;;;;5.85;3.97;;;;;;;15.26;57.42;99760.84;7657404;32;37055;-73
2022/05/03 21:08:24;;;;;;;6.85;4.07;;;;;;;15.27;57.39;99773.47;7656750;32;39226;-73
2022/05/03 21:12:40;;;;;;;6.22;3.40;;;;;;;15.33;56.52;99772.25;7657371;32;40225;-72
2022/05/03 21:16:56;;;;;;;8.23;4.10;;;;;;;15.36;56.58;99773.56;7657522;32;37448;-72
2022/05/03 21:21:12;;;;;;;7.90;4.03;;;;;;;15.08;56.98;99779.03;7658292;32;37884;-72
2022/05/03 21:25:28;;;;;;;7.05;3.60;;;;;;;14.95;57.63;99782.56;7658053;32;40315;-71
2022/05/03 21:29:45;;;;;;;6.65;3.97;;;;;;;15.06;56.69;99785.97;7657975;32;39644;-72
2022/05/03 21:34:03;;;;;;;7.43;3.70;;;;;;;15.04;56.67;99783.50;7657703;32;37706;-72
2022/05/03 21:38:19;;;;;;;7.37;4.35;;;;;;;14.82;57.38;99789.66;7658070;32;37648;-71
2022/05/03 21:42:35;;;;;;;7.22;3.95;;;;;;;14.75;58.05;99789.22;7658169;32;39951;-72
2022/05/03 21:46:51;;;;;;;7.65;4.20;;;;;;;14.74;58.27;99787.56;7657924;32;39946;-72